Latest Weather Observations for Fingal

IDT60801

Issued at 11:01 pm EST Saturday 30 April 2016 (issued every 30 minutes, with the page automatically refreshed every 10 minutes)

About weather observations | Map of weather stations | Latest weather observations for TAS | Other Formats
Station Details ID: 092012 Name: FINGAL (LEGGE STREET) Lat: -41.64 Lon: 147.97 Height: 237.0 m
Data from the previous 72 hours. | See also: Recent months at Fingal
Date/Time
EST
Temp
°C
App
Temp
°C
Dew
Point
Rel
Hum
%
Delta-T
°C
Wind Press
QNH
hPa
Press
MSL
hPa
Rain
since 9 am
mm
Dir
 
Spd
km/h
Gust
km/h
Spd
kts
Gust
kts
30/11:00pm 15.5 15.1 12.4 82 1.7 NE 6 9 3 5 - - 0.4
30/10:30pm 15.3 14.7 12.4 83 1.6 ENE 7 11 4 6 - - 0.4
30/10:00pm 15.7 15.3 12.5 81 1.8 E 6 9 3 5 - - 0.4
30/09:30pm 16.3 16.1 13.0 81 1.9 NE 6 11 3 6 - - 0.4
30/09:00pm 15.8 15.5 12.7 82 1.7 ENE 6 13 3 7 - - 0.4
30/08:30pm 15.3 14.8 12.2 82 1.7 NE 6 11 3 6 - - 0.4
30/08:00pm 14.6 14.1 11.9 84 1.5 ESE 6 9 3 5 - - 0.4
30/07:30pm 15.9 15.2 12.1 78 2.1 NNE 7 11 4 6 - - 0.4
30/07:00pm 15.9 15.1 11.7 76 2.3 N 7 11 4 6 - - 0.4
30/06:30pm 16.1 15.2 11.5 74 2.5 N 7 9 4 5 - - 0.4
30/06:00pm 16.2 15.4 11.2 72 2.7 NNE 6 9 3 5 - - 0.4
30/05:30pm 16.9 15.1 11.0 68 3.2 N 11 15 6 8 - - 0.4
30/05:00pm 17.8 14.9 11.1 65 3.7 N 17 22 9 12 - - 0.4
30/04:30pm 17.9 15.3 11.9 68 3.3 N 17 24 9 13 - - 0.4
30/04:00pm 18.2 15.8 11.3 64 3.8 N 15 20 8 11 - - 0.4
30/03:30pm 18.8 17.5 11.4 62 4.1 NW 9 11 5 6 - - 0.4
30/03:00pm 18.9 17.3 11.5 62 4.1 WNW 11 19 6 10 - - 0.4
30/02:30pm 18.2 16.2 11.5 65 3.7 WNW 13 20 7 11 - - 0.4
30/02:00pm 17.5 16.7 13.0 75 2.5 NW 9 15 5 8 - - 0.4
30/01:30pm 16.0 16.2 13.1 83 1.6 SSW 4 7 2 4 - - 0.4
30/01:00pm 17.4 16.6 11.7 69 3.1 N 7 13 4 7 - - 0.0
30/12:30pm 18.4 15.0 11.2 63 4.0 NNW 20 28 11 15 - - 0.0
30/12:00pm 18.9 16.8 11.2 61 4.2 NNE 13 20 7 11 - - 0.0
30/11:30am 18.0 16.1 11.8 67 3.4 NNE 13 19 7 10 - - 0.0
30/11:00am 18.0 16.3 11.3 65 3.7 NNE 11 19 6 10 - - 0.0
30/10:30am 16.8 15.5 11.1 69 3.1 NE 9 15 5 8 - - 0.0
30/10:00am 16.5 14.6 10.6 68 3.2 NE 11 20 6 11 - - 0.0
30/09:30am 15.5 14.4 11.9 79 2.0 NE 9 13 5 7 - - 0.0
30/09:00am 14.0 14.0 11.3 84 1.5 N 2 7 1 4 - - 1.0
30/08:30am 11.8 12.0 10.7 93 0.6 CALM 0 0 0 0 - - 1.0
30/08:00am 9.6 9.3 8.8 95 0.4 CALM 0 0 0 0 - - 1.0
30/07:30am 8.2 6.4 7.3 94 0.4 SSE 6 9 3 5 - - 1.0
30/07:00am 8.6 8.1 7.7 94 0.4 CALM 0 0 0 0 - - 1.0
30/06:30am 9.3 8.9 8.4 94 0.4 CALM 0 0 0 0 - - 1.0
30/06:00am 10.0 9.8 9.1 94 0.5 CALM 0 0 0 0 - - 1.0
30/05:30am 10.0 9.8 8.9 93 0.5 CALM 0 0 0 0 - - 1.0
30/05:00am 10.9 10.9 9.8 93 0.6 CALM 0 6 0 3 - - 1.0
30/04:30am 11.2 11.3 10.0 92 0.6 CALM 0 0 0 0 - - 1.0
30/04:00am 11.6 11.7 10.3 92 0.7 CALM 0 0 0 0 - - 0.8
30/03:30am 11.5 11.2 10.2 92 0.7 S 2 7 1 4 - - 0.8
30/03:00am 11.3 11.4 10.0 92 0.7 CALM 0 0 0 0 - - 0.8
30/02:30am 11.5 11.1 9.8 89 0.9 S 2 6 1 3 - - 0.8
30/02:00am 12.5 11.6 10.6 88 1.0 S 6 9 3 5 - - 0.8
30/01:30am 13.6 14.1 11.7 88 1.0 CALM 0 0 0 0 - - 0.8
30/01:00am 13.3 12.5 11.2 87 1.1 WNW 6 9 3 5 - - 0.8
30/12:30am 13.7 13.2 10.7 82 1.6 W 4 9 2 5 - - 0.8
30/12:00am 13.8 13.0 11.1 84 1.4 NE 6 9 3 5 - - 0.8
 
Date/Time
EST
Temp
°C
App
Temp
°C
Dew
Point
Rel
Hum
%
Delta-T
°C
Wind Press
QNH
hPa
Press
MSL
hPa
Rain
since 9 am
mm
Dir
 
Spd
km/h
Gust
km/h
Spd
kts
Gust
kts
29/11:30pm 13.9 13.3 11.6 86 1.2 WNW 6 9 3 5 - - 0.8
29/11:00pm 13.3 12.6 11.5 89 1.0 SE 6 9 3 5 - - 0.8
29/10:30pm 14.1 13.6 12.0 87 1.1 W 6 13 3 7 - - 0.8
29/10:00pm 14.9 13.6 12.6 86 1.3 N 11 13 6 7 - - 0.8
29/09:30pm 14.5 13.4 11.8 84 1.5 NNE 9 13 5 7 - - 0.8
29/09:00pm 14.4 13.9 11.9 85 1.4 W 6 15 3 8 - - 0.8
29/08:30pm 14.8 13.4 12.1 84 1.5 NNW 11 17 6 9 - - 0.8
29/08:00pm 15.2 14.6 12.3 83 1.6 N 7 28 4 15 - - 0.8
29/07:30pm 14.9 13.6 12.4 85 1.4 N 11 19 6 10 - - 0.8
29/07:00pm 15.6 15.0 12.4 81 1.8 NNE 7 13 4 7 - - 0.8
29/06:30pm 14.9 14.1 12.9 88 1.1 SE 9 13 5 7 - - 0.6
29/06:00pm 15.4 14.9 12.7 84 1.5 NE 7 9 4 5 - - 0.2
29/05:30pm 16.5 14.7 12.1 75 2.4 WNW 13 19 7 10 - - 0.0
29/05:00pm 17.2 16.7 12.1 72 2.8 WSW 6 11 3 6 - - 0.0
29/04:30pm 17.4 16.9 12.1 71 2.9 N 6 9 3 5 - - 0.0
29/04:00pm 18.1 16.9 11.7 66 3.5 NNW 9 13 5 7 - - 0.0
29/03:30pm 18.4 16.4 11.5 64 3.8 NNW 13 22 7 12 - - 0.0
29/03:00pm 19.0 16.6 11.3 61 4.3 NW 15 24 8 13 - - 0.0
29/02:30pm 19.2 18.7 12.7 66 3.7 NE 7 15 4 8 - - 0.0
29/02:00pm 19.3 17.5 12.1 63 4.0 NE 13 19 7 10 - - 0.0
29/01:30pm 19.7 18.2 12.0 61 4.3 N 11 19 6 10 - - 0.0
29/01:00pm 20.2 17.0 11.4 57 4.9 NNW 19 37 10 20 - - 0.0
29/12:30pm 21.7 19.0 11.7 53 5.6 NNW 17 26 9 14 - - 0.0
29/12:00pm 21.8 19.6 12.1 54 5.5 N 15 28 8 15 - - 0.0
29/11:30am 21.1 20.6 13.8 63 4.3 NNE 9 13 5 7 - - 0.0
29/11:00am 19.4 19.6 14.2 72 3.0 NE 6 9 3 5 - - 0.0
29/10:30am 19.3 19.3 14.3 73 2.9 ESE 7 11 4 6 - - 0.0
29/10:00am 17.4 17.2 13.7 79 2.1 NNW 7 11 4 6 - - 0.0
29/09:30am 15.5 15.9 14.7 95 0.5 E 6 9 3 5 - - 0.0
29/09:00am 13.1 13.1 12.5 96 0.3 NNW 4 7 2 4 - - 0.8
29/08:30am 12.7 12.2 12.1 96 0.3 SE 6 9 3 5 - - 0.8
29/08:00am 11.7 10.9 11.1 96 0.3 N 6 7 3 4 - - 0.8
29/07:30am 10.9 9.8 10.1 95 0.4 SE 6 7 3 4 - - 0.8
29/07:00am 10.5 10.1 9.7 95 0.4 NE 2 7 1 4 - - 0.8
29/06:30am 10.9 10.2 10.1 95 0.4 SE 4 7 2 4 - - 0.8
29/06:00am 12.0 12.4 11.2 95 0.4 CALM 0 0 0 0 - - 0.8
29/05:30am 12.8 12.3 12.0 95 0.4 E 6 7 3 4 - - 0.8
29/05:00am 13.1 12.5 12.3 95 0.4 NE 7 11 4 6 - - 0.8
29/04:30am 13.1 12.5 12.2 94 0.5 NE 7 9 4 5 - - 0.8
29/04:00am 13.5 13.0 12.6 94 0.5 SE 7 9 4 5 - - 0.8
29/03:30am 13.5 14.3 12.6 94 0.5 CALM 0 0 0 0 - - 0.6
29/03:00am 13.7 14.5 12.6 93 0.6 CALM 0 0 0 0 - - 0.6
29/02:30am 13.8 13.5 12.7 93 0.6 SE 6 9 3 5 - - 0.6
29/02:00am 13.9 14.0 12.6 92 0.7 SE 4 7 2 4 - - 0.4
29/01:30am 14.1 13.8 12.8 92 0.7 SSE 6 9 3 5 - - 0.0
29/01:00am 13.7 13.1 12.4 92 0.7 ESE 7 11 4 6 - - 0.0
29/12:30am 13.7 13.1 12.4 92 0.7 NE 7 11 4 6 - - 0.0
29/12:00am 13.9 13.5 12.5 91 0.8 NNE 6 9 3 5 - - 0.0
 
Date/Time
EST
Temp
°C
App
Temp
°C
Dew
Point
Rel
Hum
%
Delta-T
°C
Wind Press
QNH
hPa
Press
MSL
hPa
Rain
since 9 am
mm
Dir
 
Spd
km/h
Gust
km/h
Spd
kts
Gust
kts
28/11:30pm 13.8 12.8 12.4 91 0.8 SE 9 11 5 6 - - 0.0
28/11:00pm 13.0 12.1 11.2 89 1.0 ESE 7 9 4 5 - - 0.0
28/10:30pm 13.7 13.1 11.8 88 1.0 SE 6 7 3 4 - - 0.0
28/10:00pm 14.4 13.7 12.1 86 1.3 NE 7 9 4 5 - - 0.0
28/09:30pm 15.4 15.0 12.3 82 1.7 NE 6 11 3 6 - - 0.0
28/09:00pm 16.2 15.2 12.4 78 2.1 ESE 9 13 5 7 - - 0.0
28/08:30pm 16.2 14.9 12.4 78 2.1 NE 11 13 6 7 - - 0.0
28/08:00pm 16.4 15.4 12.2 76 2.3 E 9 15 5 8 - - 0.0
28/07:30pm 16.5 15.4 12.1 75 2.4 ENE 9 15 5 8 - - 0.0
28/07:00pm 16.7 15.3 12.3 75 2.4 NE 11 19 6 10 - - 0.0
28/06:30pm 17.2 17.0 11.7 70 3.0 N 4 9 2 5 - - 0.0
28/06:00pm 17.1 16.5 11.6 70 3.0 ESE 6 9 3 5 - - 0.0
28/05:30pm 18.0 18.5 11.6 66 3.5 CALM 0 0 0 0 - - 0.0
28/05:00pm 18.6 18.8 11.7 64 3.8 NNW 2 9 1 5 - - 0.0
28/04:30pm 19.9 18.9 11.1 57 4.9 WSW 7 13 4 7 - - 0.0
28/04:00pm 21.0 20.8 10.5 51 5.8 WNW 2 7 1 4 - - 0.0
28/03:30pm 21.0 19.6 10.8 52 5.6 N 9 13 5 7 - - 0.0
28/03:00pm 21.1 20.2 10.6 51 5.8 WNW 6 7 3 4 - - 0.0
28/02:30pm 21.8 19.9 10.6 49 6.2 WNW 11 17 6 9 - - 0.0
28/02:00pm 21.2 18.2 9.4 47 6.4 NW 15 24 8 13 - - 0.0
28/01:30pm 21.4 18.7 9.0 45 6.7 NNW 13 22 7 12 - - 0.0
28/01:00pm 22.4 20.5 8.9 42 7.3 NNW 9 11 5 6 - - 0.0
28/12:30pm 22.8 21.0 8.1 39 7.8 WNW 7 17 4 9 - - 0.0
28/12:00pm 23.9 22.7 9.5 40 7.9 NE 6 9 3 5 - - 0.0
28/11:30am 21.1 20.3 9.7 48 6.2 NW 4 7 2 4 - - 0.0
28/11:00am 20.7 19.9 9.6 49 6.0 ENE 4 9 2 5 - - 0.0
28/10:30am 20.4 19.1 11.1 55 5.2 E 9 13 5 7 - - 0.0
28/10:00am 18.3 17.1 11.6 65 3.7 SE 9 11 5 6 - - 0.0
28/09:30am 17.1 16.3 11.6 70 3.0 SE 7 11 4 6 - - 0.0
28/09:00am 16.4 15.6 11.6 73 2.6 SE 7 11 4 6 - - 0.0
28/08:30am 16.5 15.9 10.4 67 3.3 S 4 7 2 4 - - 0.0
28/08:00am 16.0 14.8 10.3 69 3.0 ESE 7 13 4 7 - - 0.0
28/07:30am 16.2 15.0 10.3 68 3.2 ESE 7 11 4 6 - - 0.0
28/07:00am 15.9 14.7 10.4 70 2.9 ESE 7 11 4 6 - - 0.0
28/06:30am 15.4 14.4 10.2 71 2.8 E 6 7 3 4 - - 0.0
28/06:00am 16.4 15.4 10.3 67 3.3 ESE 6 9 3 5 - - 0.0
28/05:30am 16.1 15.2 10.6 70 3.0 E 6 9 3 5 - - 0.0
28/05:00am 15.1 14.0 10.1 72 2.6 SE 6 11 3 6 - - 0.0
28/04:30am 16.0 14.7 10.1 68 3.1 SE 7 11 4 6 - - 0.0
28/04:00am 15.8 14.2 10.1 69 3.0 SE 9 13 5 7 - - 0.0
28/03:30am 15.7 14.0 9.8 68 3.1 ESE 9 11 5 6 - - 0.0
28/03:00am 15.0 13.2 9.6 70 2.8 SSE 9 11 5 6 - - 0.0
28/02:30am 14.3 12.4 8.9 70 2.8 SE 9 13 5 7 - - 0.0
28/02:00am 15.8 14.1 8.5 62 3.8 ENE 7 11 4 6 - - 0.0
28/01:30am 16.9 15.4 8.6 58 4.3 NE 6 11 3 6 - - 0.0
28/01:00am 18.0 15.3 8.8 55 4.8 N 13 22 7 12 - - 0.0
28/12:30am 17.1 15.4 7.7 54 4.8 WNW 6 9 3 5 - - 0.0
28/12:00am 17.8 15.6 7.8 52 5.1 NNW 9 13 5 7 - - 0.0
 
Date/Time
EST
Temp
°C
App
Temp
°C
Dew
Point
Rel
Hum
%
Delta-T
°C
Wind Press
QNH
hPa
Press
MSL
hPa
Rain
since 9 am
mm
Dir
 
Spd
km/h
Gust
km/h
Spd
kts
Gust
kts
27/11:30pm 17.1 15.3 8.0 55 4.7 NW 7 11 4 6 - - 0.0

Other Formats:

Comma delimited format used in spreadsheet applications
http://www.bom.gov.au/fwo/IDT60801/IDT60801.95974.axf

JavaScript Object Notation format (JSON) in row-major order
http://www.bom.gov.au/fwo/IDT60801/IDT60801.95974.json